createdAt,value
2024-05-09T00:02:25.932Z,29.00
2024-05-09T00:04:56.907Z,28.80
2024-05-09T00:07:27.793Z,28.70
2024-05-09T00:09:58.426Z,28.90
2024-05-09T00:12:29.180Z,29.00
2024-05-09T00:15:00.355Z,29.00
2024-05-09T00:17:31.091Z,28.90
2024-05-09T00:20:02.012Z,29.10
2024-05-09T00:22:35.077Z,29.00
2024-05-09T00:25:06.407Z,29.10
2024-05-09T00:27:38.199Z,29.00
2024-05-09T00:30:17.423Z,29.20
2024-05-09T00:32:53.136Z,29.20
2024-05-09T00:35:24.529Z,29.20
2024-05-09T00:37:55.182Z,29.40
2024-05-09T00:40:35.396Z,29.40
2024-05-09T00:43:11.123Z,29.50
2024-05-09T00:45:42.573Z,29.60
2024-05-09T00:48:17.500Z,29.70
2024-05-09T00:50:52.190Z,29.60
2024-05-09T00:53:23.537Z,29.60
2024-05-09T00:55:57.092Z,29.70
2024-05-09T00:58:32.380Z,29.70
2024-05-09T01:01:04.756Z,29.80
2024-05-09T01:03:36.079Z,29.90
2024-05-09T01:06:07.783Z,29.90
2024-05-09T01:08:39.193Z,29.90
2024-05-09T01:11:10.938Z,30.10
2024-05-09T01:13:42.376Z,30.10
2024-05-09T01:16:15.848Z,30.00
2024-05-09T01:18:47.106Z,30.00
2024-05-09T01:21:18.695Z,30.00
2024-05-09T01:23:51.651Z,30.00
2024-05-09T01:26:23.435Z,30.10
2024-05-09T01:28:55.247Z,30.20
2024-05-09T01:31:26.307Z,30.20
2024-05-09T01:33:57.244Z,30.20
2024-05-09T01:36:28.712Z,30.00
2024-05-09T01:38:59.710Z,30.20
2024-05-09T01:41:30.962Z,30.50
2024-05-09T01:44:01.958Z,30.70
2024-05-09T01:46:33.561Z,30.60
2024-05-09T01:49:06.287Z,30.70
2024-05-09T01:51:37.857Z,30.70
2024-05-09T01:54:08.955Z,30.70
2024-05-09T01:56:40.024Z,30.70
2024-05-09T01:59:12.033Z,30.80
2024-05-09T02:01:56.393Z,30.80
2024-05-09T02:04:29.003Z,30.80
2024-05-09T02:07:03.071Z,31.00
2024-05-09T02:09:34.287Z,31.20
2024-05-09T02:12:06.565Z,31.50
2024-05-09T02:14:37.631Z,31.70
2024-05-09T02:17:08.989Z,31.80
2024-05-09T02:19:39.977Z,31.90
2024-05-09T02:22:11.259Z,31.90
2024-05-09T02:24:43.732Z,32.00
2024-05-09T02:27:15.130Z,32.20
2024-05-09T02:29:48.359Z,32.00
2024-05-09T02:32:19.447Z,31.90
2024-05-09T02:34:50.250Z,31.90
2024-05-09T02:37:21.439Z,32.00
2024-05-09T02:39:51.755Z,32.30
2024-05-09T02:42:23.093Z,32.40
2024-05-09T02:44:54.046Z,32.30
2024-05-09T02:47:25.716Z,32.30
2024-05-09T02:49:56.835Z,32.30
2024-05-09T02:52:28.306Z,32.40
2024-05-09T02:54:59.136Z,32.40
2024-05-09T02:57:29.989Z,32.30
2024-05-09T03:00:01.359Z,32.40
2024-05-09T03:02:33.418Z,32.50
2024-05-09T03:05:05.128Z,32.40
2024-05-09T03:07:36.667Z,32.70
2024-05-09T03:10:18.031Z,32.90
2024-05-09T03:12:53.379Z,32.50
2024-05-09T03:15:24.767Z,32.90
2024-05-09T03:17:55.684Z,32.90
2024-05-09T03:20:33.083Z,33.10
2024-05-09T03:23:07.137Z,33.10
2024-05-09T03:25:40.436Z,33.40
2024-05-09T03:28:11.630Z,33.50
2024-05-09T03:30:43.310Z,33.20
2024-05-09T03:33:20.261Z,33.30
2024-05-09T03:35:51.884Z,33.50
2024-05-09T03:38:22.841Z,33.50
2024-05-09T03:40:53.724Z,33.80
2024-05-09T03:43:25.200Z,33.90
2024-05-09T03:45:56.392Z,33.90
2024-05-09T03:48:28.187Z,33.90
2024-05-09T03:50:59.560Z,33.90
2024-05-09T03:53:30.988Z,34.00
2024-05-09T03:56:05.656Z,34.30
2024-05-09T03:58:37.223Z,34.60
2024-05-09T04:01:08.562Z,34.50
2024-05-09T04:03:39.871Z,34.50
2024-05-09T04:06:11.066Z,34.40
2024-05-09T04:08:42.290Z,34.40
2024-05-09T04:11:13.120Z,34.80
2024-05-09T04:13:45.275Z,34.80
2024-05-09T04:16:16.564Z,34.40
2024-05-09T04:18:48.115Z,34.40
2024-05-09T04:21:21.465Z,34.80
2024-05-09T04:23:53.013Z,34.90
2024-05-09T04:26:25.912Z,34.90
2024-05-09T04:28:57.254Z,35.00
2024-05-09T04:31:28.211Z,35.20
2024-05-09T04:33:59.554Z,35.40
2024-05-09T04:36:30.374Z,35.40
2024-05-09T04:39:01.615Z,35.30
2024-05-09T04:41:32.727Z,35.50
2024-05-09T04:44:04.510Z,35.90
2024-05-09T04:46:35.836Z,35.60
2024-05-09T04:49:08.224Z,35.40
2024-05-09T04:51:39.431Z,35.90
2024-05-09T04:54:22.110Z,35.90
2024-05-09T04:57:00.946Z,36.20
2024-05-09T04:59:32.393Z,36.30
2024-05-09T05:02:03.641Z,36.50
2024-05-09T05:04:35.258Z,36.80
2024-05-09T05:07:06.272Z,36.80
2024-05-09T05:09:39.627Z,36.50
2024-05-09T05:12:30.451Z,36.70
2024-05-09T05:15:02.421Z,36.20
2024-05-09T05:17:34.017Z,36.00
2024-05-09T05:20:07.152Z,35.50
2024-05-09T05:22:39.787Z,35.80
2024-05-09T05:25:11.201Z,36.30
2024-05-09T05:27:43.273Z,37.00
2024-05-09T05:30:21.206Z,37.10
2024-05-09T05:32:56.405Z,37.20
2024-05-09T05:35:27.924Z,36.90
2024-05-09T05:37:59.103Z,36.60
2024-05-09T05:40:36.385Z,36.20
2024-05-09T05:43:11.009Z,36.00
2024-05-09T05:45:42.661Z,36.70
2024-05-09T05:48:14.840Z,37.20
2024-05-09T05:50:47.218Z,36.90
2024-05-09T05:53:18.360Z,37.10
2024-05-09T05:55:50.032Z,37.60
2024-05-09T05:58:21.924Z,37.60
2024-05-09T06:00:55.063Z,37.40
2024-05-09T06:03:26.105Z,37.40
2024-05-09T06:06:06.602Z,37.50
2024-05-09T06:08:37.637Z,37.30
2024-05-09T06:11:09.002Z,37.10
2024-05-09T06:13:46.105Z,37.30
2024-05-09T06:16:17.905Z,37.80
2024-05-09T06:18:49.701Z,37.60
2024-05-09T06:21:21.123Z,37.40
2024-05-09T06:23:53.052Z,37.00
2024-05-09T06:26:26.906Z,37.10
2024-05-09T06:29:00.474Z,37.50
2024-05-09T06:31:32.001Z,37.80
2024-05-09T06:34:04.108Z,37.90
2024-05-09T06:36:35.495Z,37.60
2024-05-09T06:39:07.471Z,37.70
2024-05-09T06:41:38.646Z,37.80
2024-05-09T06:44:12.156Z,38.00
2024-05-09T06:46:43.766Z,38.40
2024-05-09T06:49:15.895Z,38.60
2024-05-09T06:51:48.943Z,38.50
2024-05-09T06:54:20.930Z,38.60
2024-05-09T06:56:52.091Z,38.20
2024-05-09T06:59:23.916Z,38.40
2024-05-09T07:01:55.516Z,38.10
2024-05-09T07:04:26.740Z,38.30
2024-05-09T07:06:57.752Z,38.40
2024-05-09T07:09:29.585Z,38.70
2024-05-09T07:12:19.999Z,38.40
2024-05-09T07:14:51.984Z,38.40
2024-05-09T07:17:23.735Z,38.70
2024-05-09T07:19:55.722Z,39.00
2024-05-09T07:22:27.306Z,39.30
2024-05-09T07:24:58.655Z,39.10
2024-05-09T07:27:29.941Z,38.50
2024-05-09T07:30:05.502Z,38.70
2024-05-09T07:32:37.811Z,38.70
2024-05-09T07:35:09.324Z,38.70
2024-05-09T07:37:42.647Z,38.70
2024-05-09T07:40:24.093Z,38.50
2024-05-09T07:43:00.194Z,38.50
2024-05-09T07:45:48.194Z,39.00
2024-05-09T07:53:40.581Z,38.30
2024-05-09T07:56:18.315Z,38.20
2024-05-09T07:58:52.325Z,38.40
2024-05-09T08:01:23.628Z,38.80
2024-05-09T08:03:54.548Z,38.80
2024-05-09T08:06:26.674Z,38.90
2024-05-09T08:09:00.712Z,38.70
2024-05-09T08:11:35.591Z,38.70
2024-05-09T08:14:08.641Z,38.70
2024-05-09T08:16:39.814Z,38.80
2024-05-09T08:19:10.733Z,38.60
2024-05-09T08:21:41.859Z,38.50
2024-05-09T08:24:12.988Z,38.40
2024-05-09T08:26:44.011Z,38.60
2024-05-09T08:29:15.144Z,38.70
2024-05-09T08:31:47.429Z,39.30
2024-05-09T08:34:19.755Z,38.70
2024-05-09T08:36:50.933Z,39.00
2024-05-09T08:39:22.189Z,38.60
2024-05-09T08:41:54.813Z,38.30
2024-05-09T08:44:26.481Z,38.30
2024-05-09T08:46:58.887Z,38.60
2024-05-09T08:49:29.717Z,38.30
2024-05-09T08:52:01.130Z,37.60
2024-05-09T08:54:33.146Z,37.60
2024-05-09T08:57:04.604Z,37.50
2024-05-09T08:59:43.460Z,37.40
2024-05-09T09:02:16.802Z,37.40
2024-05-09T09:05:18.455Z,37.70
2024-05-09T09:07:51.239Z,38.00
2024-05-09T09:10:29.930Z,37.60
2024-05-09T09:13:09.400Z,37.80
2024-05-09T09:16:00.810Z,37.90
2024-05-09T09:18:32.386Z,37.90
2024-05-09T09:21:04.787Z,38.10
2024-05-09T09:23:36.360Z,37.90
2024-05-09T09:26:07.498Z,37.70
2024-05-09T09:28:42.283Z,37.60
2024-05-09T09:31:14.016Z,37.40
2024-05-09T09:33:46.870Z,37.40
2024-05-09T09:36:20.467Z,37.40
2024-05-09T09:38:53.710Z,37.30
2024-05-09T09:41:27.814Z,37.20
2024-05-09T09:43:59.803Z,36.90
2024-05-09T09:46:31.885Z,36.80
2024-05-09T09:49:03.132Z,36.90
2024-05-09T09:51:35.434Z,36.90
2024-05-09T09:54:07.966Z,36.90
2024-05-09T09:56:41.928Z,36.70
2024-05-09T09:59:15.833Z,36.60
2024-05-09T10:01:50.323Z,36.60
2024-05-09T10:04:22.490Z,36.60
2024-05-09T10:07:01.747Z,36.50
2024-05-09T10:09:34.459Z,36.40
2024-05-09T10:12:18.429Z,36.20
2024-05-09T10:14:54.105Z,36.10
2024-05-09T10:17:24.919Z,36.10
2024-05-09T10:20:14.791Z,36.00
2024-05-09T10:22:52.429Z,35.90
2024-05-09T10:25:23.423Z,35.00
2024-05-09T10:27:58.197Z,34.50
2024-05-09T10:30:35.619Z,34.10
2024-05-09T10:33:13.628Z,34.00
2024-05-09T10:35:54.675Z,33.20
2024-05-09T10:38:26.962Z,32.90
2024-05-09T10:41:00.869Z,32.70
2024-05-09T10:43:33.062Z,31.90
2024-05-09T10:46:04.254Z,31.00
2024-05-09T10:48:35.957Z,31.00
2024-05-09T10:51:07.934Z,30.30
2024-05-09T10:53:46.841Z,30.50
2024-05-09T10:56:18.288Z,30.50
2024-05-09T10:58:53.094Z,30.40
2024-05-09T11:01:26.686Z,30.40
2024-05-09T11:03:59.504Z,29.90
2024-05-09T11:06:32.029Z,29.80
2024-05-09T11:09:03.557Z,29.70
2024-05-09T11:11:34.953Z,29.80
2024-05-09T11:14:15.195Z,29.80
2024-05-09T11:16:46.369Z,29.60
2024-05-09T11:19:20.305Z,29.60
2024-05-09T11:21:55.217Z,29.40
2024-05-09T11:24:27.990Z,29.20
2024-05-09T11:27:04.585Z,29.30
2024-05-09T11:29:49.291Z,29.30
2024-05-09T11:32:31.773Z,29.20
2024-05-09T11:35:04.054Z,29.40
2024-05-09T11:37:37.367Z,29.00
2024-05-09T11:40:13.942Z,29.10
2024-05-09T11:42:53.581Z,29.20
2024-05-09T11:45:25.119Z,28.90
2024-05-09T11:47:56.250Z,28.70
2024-05-09T11:50:33.051Z,28.60
2024-05-09T11:53:06.382Z,28.80
2024-05-09T11:55:38.165Z,28.80
2024-05-09T11:58:10.153Z,29.00
2024-05-09T12:00:41.276Z,29.00
2024-05-09T12:03:12.556Z,29.00
2024-05-09T12:05:43.594Z,28.90
2024-05-09T12:08:15.927Z,28.90
2024-05-09T12:10:46.939Z,29.50
2024-05-09T12:13:18.158Z,29.70
2024-05-09T12:15:49.342Z,29.90
2024-05-09T12:18:20.403Z,29.90
2024-05-09T12:20:51.297Z,30.10
2024-05-09T12:23:22.745Z,29.60
2024-05-09T12:25:54.297Z,29.40
2024-05-09T12:28:25.428Z,29.80
2024-05-09T12:30:56.352Z,30.10
2024-05-09T12:33:28.268Z,29.70
2024-05-09T12:35:59.884Z,29.40
2024-05-09T12:38:32.986Z,29.20
2024-05-09T12:41:04.126Z,29.20
2024-05-09T12:43:36.540Z,29.20
2024-05-09T12:46:07.821Z,29.80
2024-05-09T12:48:39.728Z,29.90
2024-05-09T12:51:10.907Z,30.10
2024-05-09T12:53:42.299Z,30.20
2024-05-09T12:56:13.436Z,30.20
2024-05-09T12:58:43.896Z,30.30
2024-05-09T13:01:14.524Z,30.00
2024-05-09T13:03:50.102Z,29.80
2024-05-09T13:06:22.517Z,29.90
2024-05-09T13:08:53.404Z,29.90
2024-05-09T13:11:24.129Z,29.80
2024-05-09T13:13:56.277Z,29.50
2024-05-09T13:16:27.873Z,29.10
2024-05-09T13:18:58.591Z,29.40
2024-05-09T13:21:30.273Z,29.30
2024-05-09T13:24:01.023Z,29.00
2024-05-09T13:26:31.808Z,28.80
2024-05-09T13:29:05.584Z,28.50
2024-05-09T13:31:36.523Z,28.70
2024-05-09T13:34:07.476Z,28.70
2024-05-09T13:36:38.893Z,28.80
2024-05-09T13:39:15.500Z,28.80
2024-05-09T13:41:47.858Z,28.90
2024-05-09T13:44:18.938Z,28.70
2024-05-09T13:46:50.805Z,28.80
2024-05-09T13:49:22.922Z,28.70
2024-05-09T13:51:55.480Z,28.70
2024-05-09T13:54:26.656Z,28.60
2024-05-09T13:57:03.020Z,28.10
2024-05-09T13:59:34.866Z,27.80
2024-05-09T14:02:06.435Z,27.80
2024-05-09T14:04:42.327Z,27.90
2024-05-09T14:07:16.566Z,27.60
2024-05-09T14:09:49.009Z,27.30
2024-05-09T14:12:19.939Z,27.20
2024-05-09T14:14:52.000Z,26.70
2024-05-09T14:17:24.992Z,26.20
2024-05-09T14:19:57.710Z,26.10
2024-05-09T14:22:29.270Z,26.00
2024-05-09T14:25:05.743Z,26.10
2024-05-09T14:27:38.833Z,26.00
2024-05-09T14:30:18.312Z,26.10
2024-05-09T14:33:00.266Z,26.10
2024-05-09T14:35:33.011Z,26.10
2024-05-09T14:38:04.593Z,26.20
2024-05-09T14:40:42.999Z,26.10
2024-05-09T14:43:16.452Z,26.10
2024-05-09T14:45:48.474Z,26.10
2024-05-09T14:48:21.830Z,26.00
2024-05-09T14:50:57.138Z,26.00
2024-05-09T14:53:30.386Z,26.00
2024-05-09T14:56:03.337Z,26.20
2024-05-09T14:58:36.213Z,26.30
2024-05-09T15:01:08.365Z,26.30
2024-05-09T15:03:41.345Z,26.30
2024-05-09T15:06:15.495Z,26.30
2024-05-09T15:08:46.353Z,26.50
2024-05-09T15:11:18.950Z,26.20
2024-05-09T15:13:50.818Z,26.20
2024-05-09T15:16:23.599Z,26.20
2024-05-09T15:18:55.107Z,26.20
2024-05-09T15:21:26.624Z,26.40
2024-05-09T15:23:57.956Z,26.50
2024-05-09T15:26:29.357Z,26.50
2024-05-09T15:29:01.076Z,26.60
2024-05-09T15:31:33.307Z,26.90
2024-05-09T15:34:05.801Z,27.00
2024-05-09T15:36:40.367Z,26.90
2024-05-09T15:39:12.840Z,26.90
2024-05-09T15:41:48.887Z,26.80
2024-05-09T15:44:23.974Z,26.60
2024-05-09T15:46:56.402Z,26.50
2024-05-09T15:49:27.848Z,26.50
2024-05-09T15:52:06.187Z,26.50
2024-05-09T15:54:37.909Z,26.60
2024-05-09T15:57:10.171Z,26.50
2024-05-09T15:59:44.476Z,26.50
2024-05-09T16:02:19.627Z,26.50
2024-05-09T16:04:52.195Z,26.40
2024-05-09T16:07:23.346Z,26.40
2024-05-09T16:09:54.415Z,26.30
2024-05-09T16:12:25.050Z,26.30
2024-05-09T16:14:56.085Z,26.40
2024-05-09T16:17:27.330Z,26.50
2024-05-09T16:20:02.029Z,26.40
2024-05-09T16:22:33.618Z,26.40
2024-05-09T16:25:05.062Z,26.40
2024-05-09T16:27:35.886Z,26.40
2024-05-09T16:30:11.958Z,26.60
2024-05-09T16:32:48.366Z,26.60
2024-05-09T16:35:20.973Z,26.70
2024-05-09T16:37:52.445Z,26.60
2024-05-09T16:40:30.308Z,26.70
2024-05-09T16:43:12.492Z,26.50
2024-05-09T16:45:46.335Z,26.60
2024-05-09T16:48:18.878Z,26.40
2024-05-09T16:50:51.362Z,26.30
2024-05-09T16:53:23.509Z,26.30
2024-05-09T16:55:55.876Z,26.30
2024-05-09T16:58:28.768Z,26.20
2024-05-09T17:01:00.422Z,26.00
2024-05-09T17:03:31.863Z,26.00
2024-05-09T17:06:07.226Z,26.00
2024-05-09T17:08:39.823Z,26.00
2024-05-09T17:11:14.799Z,26.30
2024-05-09T17:13:48.001Z,26.30
2024-05-09T17:16:20.299Z,26.30
2024-05-09T17:18:53.223Z,26.30
2024-05-09T17:21:25.037Z,26.30
2024-05-09T17:23:57.391Z,26.10
2024-05-09T17:26:28.708Z,26.00
2024-05-09T17:29:01.032Z,26.00
2024-05-09T17:31:31.950Z,25.90
2024-05-09T17:34:03.399Z,26.10
2024-05-09T17:36:34.228Z,26.00
2024-05-09T17:39:05.058Z,26.00
2024-05-09T17:41:36.721Z,26.00
2024-05-09T17:44:09.024Z,26.20
2024-05-09T17:46:40.531Z,26.10
2024-05-09T17:49:10.915Z,26.00
2024-05-09T17:51:52.291Z,26.00
2024-05-09T17:54:23.665Z,26.10
2024-05-09T17:56:54.667Z,26.10
2024-05-09T17:59:25.899Z,26.00
2024-05-09T18:01:57.014Z,26.00
2024-05-09T18:04:29.714Z,25.90
2024-05-09T18:07:01.795Z,25.90
2024-05-09T18:09:32.920Z,25.90
2024-05-09T18:12:04.221Z,26.00
2024-05-09T18:14:34.936Z,26.10
2024-05-09T18:17:06.298Z,26.00
2024-05-09T18:19:37.123Z,26.00
2024-05-09T18:22:08.528Z,26.10
2024-05-09T18:24:39.152Z,26.10
2024-05-09T18:27:10.203Z,26.10
2024-05-09T18:29:41.080Z,26.10
2024-05-09T18:32:12.018Z,26.00
2024-05-09T18:34:43.214Z,26.10
2024-05-09T18:37:14.690Z,26.10
2024-05-09T18:39:45.697Z,26.20
2024-05-09T18:42:16.935Z,26.10
2024-05-09T18:44:48.990Z,26.10
2024-05-09T18:47:20.596Z,25.90
2024-05-09T18:49:52.393Z,25.80
2024-05-09T18:52:23.742Z,25.80
2024-05-09T18:54:55.081Z,25.90
2024-05-09T18:57:27.654Z,25.90
2024-05-09T18:59:58.796Z,25.90
2024-05-09T19:02:30.073Z,25.90
2024-05-09T19:05:01.477Z,25.90
2024-05-09T19:07:33.015Z,26.10
2024-05-09T19:10:05.573Z,26.10
2024-05-09T19:12:36.993Z,26.30
2024-05-09T19:15:08.167Z,26.30
2024-05-09T19:17:40.215Z,26.10
2024-05-09T19:20:20.611Z,26.30
2024-05-09T19:22:59.644Z,26.10
2024-05-09T19:25:30.383Z,26.00
2024-05-09T19:28:02.061Z,25.90
2024-05-09T19:30:39.258Z,25.80
2024-05-09T19:33:14.544Z,25.80
2024-05-09T19:35:46.247Z,25.90
2024-05-09T19:38:17.822Z,25.80
2024-05-09T19:40:49.101Z,25.90
2024-05-09T19:43:20.423Z,26.00
2024-05-09T19:45:52.795Z,26.10
2024-05-09T19:48:24.734Z,25.90
2024-05-09T19:50:55.667Z,25.80
2024-05-09T19:53:26.912Z,25.70
2024-05-09T19:55:59.404Z,25.60
2024-05-09T19:58:30.206Z,25.70
2024-05-09T20:01:01.050Z,25.80
2024-05-09T20:03:33.934Z,25.90
2024-05-09T20:06:04.870Z,26.00
2024-05-09T20:08:36.303Z,26.10
2024-05-09T20:11:07.617Z,26.30
2024-05-09T20:13:39.441Z,26.20
2024-05-09T20:16:10.588Z,25.90
2024-05-09T20:18:41.109Z,25.90
2024-05-09T20:21:12.062Z,25.90
2024-05-09T20:23:42.705Z,25.80
2024-05-09T20:26:13.916Z,25.80
2024-05-09T20:28:46.483Z,25.80
2024-05-09T20:31:23.069Z,25.80
2024-05-09T20:33:53.653Z,25.80
2024-05-09T20:36:24.166Z,25.90
2024-05-09T20:38:55.082Z,25.90
2024-05-09T20:41:25.869Z,25.80
2024-05-09T20:43:59.739Z,25.80
2024-05-09T20:46:32.068Z,26.00
2024-05-09T20:49:03.252Z,26.10
2024-05-09T20:51:34.216Z,25.90
2024-05-09T20:54:05.567Z,25.80
2024-05-09T20:56:35.918Z,25.80
2024-05-09T20:59:07.162Z,25.90
2024-05-09T21:01:38.022Z,26.00
2024-05-09T21:04:09.513Z,25.80
2024-05-09T21:06:39.930Z,25.90
2024-05-09T21:09:11.341Z,25.90
2024-05-09T21:11:41.959Z,25.90
2024-05-09T21:14:12.852Z,25.90
2024-05-09T21:16:43.507Z,25.90
2024-05-09T21:19:14.358Z,25.80
2024-05-09T21:21:45.465Z,25.90
2024-05-09T21:24:15.994Z,25.90
2024-05-09T21:26:46.905Z,25.90
2024-05-09T21:29:17.654Z,25.80
2024-05-09T21:31:48.419Z,25.90
2024-05-09T21:34:19.468Z,25.80
2024-05-09T21:36:50.149Z,25.80
2024-05-09T21:39:21.334Z,25.80
2024-05-09T21:41:52.274Z,25.70
2024-05-09T21:44:23.228Z,25.80
2024-05-09T21:46:55.144Z,25.90
2024-05-09T21:49:26.422Z,25.80
2024-05-09T21:51:57.177Z,25.80
2024-05-09T21:54:28.797Z,25.90
2024-05-09T21:56:59.695Z,25.80
2024-05-09T21:59:31.348Z,25.70
2024-05-09T22:02:02.531Z,25.80
2024-05-09T22:04:33.600Z,25.80
2024-05-09T22:07:06.233Z,25.90
2024-05-09T22:09:37.522Z,25.70
2024-05-09T22:12:08.962Z,25.70
2024-05-09T22:14:39.714Z,25.70
2024-05-09T22:17:10.888Z,25.80
2024-05-09T22:19:42.398Z,25.60
2024-05-09T22:22:13.769Z,25.60
2024-05-09T22:24:44.802Z,25.70
2024-05-09T22:27:16.143Z,25.60
2024-05-09T22:29:47.409Z,25.80
2024-05-09T22:32:18.757Z,25.90
2024-05-09T22:34:49.756Z,25.90
2024-05-09T22:37:21.404Z,25.90
2024-05-09T22:39:52.506Z,25.80
2024-05-09T22:42:23.399Z,25.70
2024-05-09T22:44:55.135Z,25.80
2024-05-09T22:47:27.483Z,25.80
2024-05-09T22:49:58.333Z,25.80
2024-05-09T22:52:28.830Z,25.80
2024-05-09T22:54:59.708Z,25.80
2024-05-09T22:57:30.437Z,25.80
2024-05-09T23:00:00.482Z,25.70
2024-05-09T23:02:31.620Z,25.70
2024-05-09T23:05:02.449Z,25.80
2024-05-09T23:07:33.642Z,25.70
2024-05-09T23:10:05.479Z,25.80
2024-05-09T23:12:40.302Z,25.70
2024-05-09T23:15:11.130Z,25.80
2024-05-09T23:17:52.938Z,25.90
2024-05-09T23:20:33.391Z,26.00
2024-05-09T23:23:10.981Z,26.00
2024-05-09T23:25:43.923Z,26.00
2024-05-09T23:28:15.084Z,26.00
2024-05-09T23:30:45.656Z,25.90
2024-05-09T23:33:16.346Z,26.00
2024-05-09T23:35:46.925Z,26.00
2024-05-09T23:38:18.404Z,26.10
2024-05-09T23:40:51.219Z,26.10
2024-05-09T23:43:21.758Z,26.10
2024-05-09T23:45:52.953Z,26.10
2024-05-09T23:48:25.223Z,26.30
2024-05-09T23:50:56.581Z,26.20
2024-05-09T23:53:26.993Z,26.20
2024-05-09T23:55:58.000Z,26.20
2024-05-09T23:58:29.943Z,26.30
